Bradford, Rhode Island
Current Conditions -  °F | °C
As of 1:53 PM on Sunday 23 Nov 2014 (Local Time) from KWST Reporting Station
Clear Clear  
Wind Chill: 52°   Ceiling: Unl
Heat Index: 52°   Visibility: 10mi
Dew Point: 32°   Wind: 8mph
Humidity: 47%   Direction: 220°SW
Pressure: 30.16"   Gusts: NA
Location:  41.39°N, 71.75°W
Report Text: KWST 231853Z AUTO 22007KT 10SM CLR 11/00 A3016 RMK AO2 SLP212 T01110000
Loading
Personal Weather Stations






























Interactive Weather Map New forecast layout! Learn more

10-Day Weather Forecast

Advertisements
Track Severe Weather on mobile